createdAt,value
2023-04-19T00:00:09.196Z,23.68
2023-04-19T00:02:36.690Z,23.64
2023-04-19T00:05:04.477Z,23.62
2023-04-19T00:07:31.695Z,23.58
2023-04-19T00:09:59.610Z,23.55
2023-04-19T00:12:27.275Z,23.51
2023-04-19T00:14:54.410Z,23.47
2023-04-19T00:17:21.993Z,23.45
2023-04-19T00:19:49.095Z,23.42
2023-04-19T00:22:16.195Z,23.38
2023-04-19T00:28:01.857Z,23.31
2023-04-19T00:30:29.778Z,23.32
2023-04-19T00:32:58.627Z,23.31
2023-04-19T00:35:27.609Z,23.25
2023-04-19T00:37:55.113Z,23.24
2023-04-19T00:40:22.508Z,23.19
2023-04-19T00:42:51.405Z,23.18
2023-04-19T00:45:18.467Z,23.18
2023-04-19T00:47:46.023Z,23.22
2023-04-19T00:50:13.023Z,23.18
2023-04-19T00:52:40.325Z,23.14
2023-04-19T00:55:08.545Z,23.11
2023-04-19T00:57:35.864Z,23.08
2023-04-19T01:00:06.387Z,23.09
2023-04-19T01:02:33.630Z,23.02
2023-04-19T01:05:00.899Z,23.03
2023-04-19T01:07:28.024Z,23.03
2023-04-19T01:09:55.488Z,22.98
2023-04-19T01:12:23.386Z,22.93
2023-04-19T01:14:50.822Z,22.93
2023-04-19T01:17:18.389Z,22.91
2023-04-19T01:19:45.310Z,22.91
2023-04-19T01:22:15.764Z,22.88
2023-04-19T01:24:42.710Z,22.83
2023-04-19T01:27:09.612Z,22.83
2023-04-19T01:29:36.684Z,22.81
2023-04-19T01:32:03.834Z,22.77
2023-04-19T01:34:30.872Z,22.73
2023-04-19T01:36:57.834Z,22.73
2023-04-19T01:39:26.604Z,22.71
2023-04-19T01:41:53.591Z,22.70
2023-04-19T01:44:20.647Z,22.64
2023-04-19T01:46:47.618Z,22.62
2023-04-19T01:49:14.543Z,22.62
2023-04-19T01:51:41.435Z,22.61
2023-04-19T01:54:08.468Z,22.61
2023-04-19T01:56:35.540Z,22.52
2023-04-19T01:59:02.489Z,22.52
2023-04-19T02:01:32.661Z,22.48
2023-04-19T02:04:00.414Z,22.48
2023-04-19T02:06:27.409Z,22.46
2023-04-19T02:08:54.320Z,22.45
2023-04-19T02:11:21.349Z,22.43
2023-04-19T02:13:48.889Z,22.42
2023-04-19T02:16:15.893Z,22.37
2023-04-19T02:18:43.028Z,22.36
2023-04-19T02:21:10.526Z,22.33
2023-04-19T02:23:37.493Z,22.35
2023-04-19T02:26:04.516Z,22.30
2023-04-19T02:28:32.089Z,22.30
2023-04-19T02:30:59.633Z,22.24
2023-04-19T02:33:27.670Z,22.23
2023-04-19T02:35:54.609Z,22.21
2023-04-19T02:38:21.633Z,22.20
2023-04-19T02:40:48.617Z,22.21
2023-04-19T02:43:15.604Z,22.15
2023-04-19T02:45:42.753Z,22.14
2023-04-19T02:48:10.250Z,22.14
2023-04-19T02:50:37.887Z,22.14
2023-04-19T02:53:04.872Z,22.10
2023-04-19T02:55:31.864Z,22.08
2023-04-19T02:57:58.811Z,22.07
2023-04-19T03:00:26.368Z,22.05
2023-04-19T03:02:53.444Z,22.03
2023-04-19T03:05:20.722Z,22.03
2023-04-19T03:07:47.684Z,22.02
2023-04-19T03:10:14.671Z,21.96
2023-04-19T03:12:41.677Z,21.98
2023-04-19T03:15:08.876Z,21.93
2023-04-19T03:17:37.860Z,21.93
2023-04-19T03:20:08.055Z,21.91
2023-04-19T03:22:34.976Z,21.89
2023-04-19T03:25:02.242Z,21.91
2023-04-19T03:27:29.726Z,21.86
2023-04-19T03:29:57.307Z,21.85
2023-04-19T03:32:24.274Z,21.86
2023-04-19T03:34:51.184Z,21.85
2023-04-19T03:37:18.194Z,21.84
2023-04-19T03:39:45.151Z,21.80
2023-04-19T03:42:12.214Z,21.78
2023-04-19T03:44:39.156Z,21.78
2023-04-19T03:47:06.130Z,21.75
2023-04-19T03:49:33.075Z,21.77
2023-04-19T03:51:59.996Z,21.73
2023-04-19T03:54:26.884Z,21.71
2023-04-19T03:56:53.830Z,21.71
2023-04-19T03:59:20.756Z,21.68
2023-04-19T04:01:47.699Z,21.69
2023-04-19T04:04:15.044Z,21.67
2023-04-19T04:06:42.510Z,21.66
2023-04-19T04:09:09.557Z,21.65
2023-04-19T04:11:36.567Z,21.62
2023-04-19T04:14:04.205Z,21.59
2023-04-19T04:16:31.228Z,21.59
2023-04-19T04:18:58.276Z,21.56
2023-04-19T04:21:25.273Z,21.55
2023-04-19T04:23:53.589Z,21.54
2023-04-19T04:26:20.569Z,21.53
2023-04-19T04:28:47.690Z,21.52
2023-04-19T04:31:14.686Z,21.52
2023-04-19T04:33:42.179Z,21.47
2023-04-19T04:36:12.296Z,21.46
2023-04-19T04:38:39.412Z,21.43
2023-04-19T04:41:06.503Z,21.48
2023-04-19T04:43:33.896Z,21.44
2023-04-19T04:46:01.710Z,21.42
2023-04-19T04:48:28.794Z,21.40
2023-04-19T04:50:55.806Z,21.39
2023-04-19T04:53:22.801Z,21.36
2023-04-19T04:55:49.770Z,21.34
2023-04-19T04:58:18.006Z,21.35
2023-04-19T05:00:46.185Z,21.32
2023-04-19T05:03:13.501Z,21.30
2023-04-19T05:05:40.644Z,21.32
2023-04-19T05:08:07.626Z,21.29
2023-04-19T05:10:34.692Z,21.29
2023-04-19T05:13:02.163Z,21.27
2023-04-19T05:15:29.101Z,21.26
2023-04-19T05:17:56.204Z,21.21
2023-04-19T05:20:23.197Z,21.20
2023-04-19T05:22:50.150Z,21.21
2023-04-19T05:25:17.202Z,21.19
2023-04-19T05:27:44.135Z,21.18
2023-04-19T05:30:11.348Z,21.16
2023-04-19T05:32:38.485Z,21.16
2023-04-19T05:35:06.035Z,21.15
2023-04-19T05:37:33.247Z,21.18
2023-04-19T05:40:00.222Z,21.27
2023-04-19T05:42:27.297Z,21.31
2023-04-19T05:44:54.304Z,21.36
2023-04-19T05:47:21.717Z,21.42
2023-04-19T05:49:48.820Z,21.47
2023-04-19T05:52:15.808Z,21.49
2023-04-19T05:54:44.106Z,21.50
2023-04-19T05:57:11.734Z,21.53
2023-04-19T05:59:38.796Z,21.56
2023-04-19T06:02:06.187Z,21.61
2023-04-19T06:04:33.439Z,21.65
2023-04-19T06:07:00.479Z,21.70
2023-04-19T06:09:27.579Z,21.76
2023-04-19T06:11:56.227Z,21.82
2023-04-19T06:14:24.137Z,21.85
2023-04-19T06:16:51.419Z,21.92
2023-04-19T06:19:18.731Z,21.97
2023-04-19T06:21:46.814Z,22.02
2023-04-19T06:24:14.846Z,22.08
2023-04-19T06:26:42.080Z,22.13
2023-04-19T06:29:09.208Z,22.19
2023-04-19T06:31:36.266Z,22.23
2023-04-19T06:34:03.304Z,22.27
2023-04-19T06:36:30.365Z,22.31
2023-04-19T06:38:57.411Z,22.36
2023-04-19T06:41:24.480Z,22.40
2023-04-19T06:43:51.484Z,22.43
2023-04-19T06:46:18.891Z,22.44
2023-04-19T06:48:45.998Z,22.40
2023-04-19T06:51:13.124Z,22.07
2023-04-19T06:53:40.326Z,21.95
2023-04-19T06:56:07.566Z,21.83
2023-04-19T06:58:35.881Z,21.76
2023-04-19T07:01:05.602Z,21.66
2023-04-19T07:03:33.327Z,21.51
2023-04-19T07:06:00.471Z,21.39
2023-04-19T07:08:34.970Z,21.33
2023-04-19T07:11:06.135Z,21.23
2023-04-19T07:13:33.441Z,21.19
2023-04-19T07:16:00.542Z,21.12
2023-04-19T07:18:27.564Z,20.99
2023-04-19T07:20:55.236Z,20.95
2023-04-19T07:23:22.346Z,20.82
2023-04-19T07:25:49.483Z,20.73
2023-04-19T07:28:16.507Z,20.75
2023-04-19T07:30:46.477Z,20.87
2023-04-19T07:33:13.711Z,21.00
2023-04-19T07:35:41.069Z,21.12
2023-04-19T07:38:08.302Z,21.17
2023-04-19T07:40:35.259Z,21.15
2023-04-19T07:43:02.252Z,21.16
2023-04-19T07:45:30.733Z,21.13
2023-04-19T07:47:58.002Z,21.10
2023-04-19T07:50:27.393Z,21.08
2023-04-19T07:52:54.792Z,21.05
2023-04-19T07:55:21.884Z,21.04
2023-04-19T07:57:49.510Z,21.03
2023-04-19T08:00:17.333Z,21.01
2023-04-19T08:02:45.946Z,21.01
2023-04-19T08:05:14.159Z,20.98
2023-04-19T08:07:41.279Z,21.00
2023-04-19T08:10:08.812Z,20.98
2023-04-19T08:12:41.245Z,21.01
2023-04-19T08:15:45.037Z,21.01
2023-04-19T08:18:01.952Z,21.04
2023-04-19T08:20:29.356Z,21.06
2023-04-19T08:22:57.014Z,21.07
2023-04-19T08:25:28.825Z,21.06
2023-04-19T08:27:56.016Z,21.08
2023-04-19T08:30:23.170Z,21.09
2023-04-19T08:32:50.650Z,21.09
2023-04-19T08:35:17.821Z,21.10
2023-04-19T08:37:44.819Z,21.09
2023-04-19T08:40:12.176Z,21.11
2023-04-19T08:42:39.212Z,21.07
2023-04-19T08:47:52.000Z,21.08
2023-04-19T08:50:33.238Z,21.08
2023-04-19T08:55:34.225Z,21.08
2023-04-19T08:58:04.005Z,21.06
2023-04-19T09:00:34.440Z,21.07
2023-04-19T09:03:01.709Z,21.05
2023-04-19T09:05:29.437Z,21.04
2023-04-19T09:07:56.564Z,21.02
2023-04-19T09:10:24.777Z,21.02
2023-04-19T09:12:55.112Z,21.00
2023-04-19T09:15:36.321Z,20.97
2023-04-19T09:18:06.475Z,20.97
2023-04-19T09:20:36.900Z,20.97
2023-04-19T09:23:06.477Z,20.96
2023-04-19T09:25:49.348Z,20.92
2023-04-19T09:28:20.997Z,20.90
2023-04-19T09:31:03.145Z,20.88
2023-04-19T09:33:37.156Z,20.88
2023-04-19T09:36:04.517Z,20.89
2023-04-19T09:38:31.568Z,20.89
2023-04-19T09:41:02.319Z,20.86
2023-04-19T09:43:53.749Z,20.86
2023-04-19T09:46:19.515Z,20.85
2023-04-19T09:48:46.532Z,20.85
2023-04-19T09:51:14.689Z,20.82
2023-04-19T09:53:43.678Z,20.83
2023-04-19T09:56:13.167Z,20.81
2023-04-19T09:58:50.026Z,20.81
2023-04-19T10:01:23.166Z,20.82
2023-04-19T10:03:51.968Z,20.80
2023-04-19T10:08:50.743Z,20.82
2023-04-19T10:11:19.329Z,20.76
2023-04-19T10:13:48.005Z,20.78
2023-04-19T10:16:19.450Z,20.77
2023-04-19T10:18:48.182Z,20.74
2023-04-19T10:21:16.187Z,20.73
2023-04-19T10:23:43.354Z,20.73
2023-04-19T10:26:10.482Z,20.72
2023-04-19T10:28:38.788Z,20.73
2023-04-19T10:31:05.891Z,20.73
2023-04-19T10:33:35.998Z,20.73
2023-04-19T10:36:03.273Z,20.71
2023-04-19T10:38:34.325Z,20.72
2023-04-19T10:41:02.134Z,20.70
2023-04-19T10:43:30.346Z,20.72
2023-04-19T10:46:01.452Z,20.69
2023-04-19T10:48:32.147Z,20.69
2023-04-19T10:50:59.985Z,20.72
2023-04-19T10:53:30.233Z,20.72
2023-04-19T10:55:57.387Z,20.71
2023-04-19T10:58:24.435Z,20.72
2023-04-19T11:00:51.583Z,20.70
2023-04-19T11:03:22.388Z,20.71
2023-04-19T11:05:52.645Z,20.70
2023-04-19T11:08:23.667Z,20.70
2023-04-19T11:10:52.747Z,20.70
2023-04-19T11:13:20.397Z,20.73
2023-04-19T11:15:47.535Z,20.76
2023-04-19T11:18:19.706Z,20.77
2023-04-19T11:20:47.016Z,20.76
2023-04-19T11:23:18.770Z,20.77
2023-04-19T11:25:46.708Z,20.81
2023-04-19T11:28:17.884Z,20.85
2023-04-19T11:30:45.176Z,20.90
2023-04-19T11:33:13.053Z,20.91
2023-04-19T11:35:40.474Z,20.92
2023-04-19T11:38:07.784Z,20.94
2023-04-19T11:40:35.177Z,20.93
2023-04-19T11:43:03.625Z,20.92
2023-04-19T11:45:36.652Z,20.89
2023-04-19T11:48:06.287Z,20.89
2023-04-19T11:50:34.493Z,20.90
2023-04-19T11:53:10.800Z,20.93
2023-04-19T11:55:37.946Z,20.97
2023-04-19T11:58:09.935Z,20.98
2023-04-19T12:00:37.290Z,20.97
2023-04-19T12:03:05.051Z,20.97
2023-04-19T12:05:32.749Z,20.97
2023-04-19T12:08:02.224Z,20.95
2023-04-19T12:10:29.618Z,20.93
2023-04-19T12:12:56.759Z,20.94
2023-04-19T12:15:24.913Z,20.94
2023-04-19T12:17:57.466Z,20.96
2023-04-19T12:20:28.062Z,21.00
2023-04-19T12:22:55.303Z,21.05
2023-04-19T12:25:22.707Z,21.12
2023-04-19T12:27:49.916Z,21.22
2023-04-19T12:30:17.445Z,21.29
2023-04-19T12:32:45.108Z,21.36
2023-04-19T12:35:12.323Z,21.41
2023-04-19T12:37:39.350Z,21.45
2023-04-19T12:40:07.013Z,21.50
2023-04-19T12:42:34.321Z,21.60
2023-04-19T12:45:01.736Z,21.67
2023-04-19T12:47:28.970Z,21.71
2023-04-19T12:49:57.998Z,21.77
2023-04-19T12:52:25.195Z,21.81
2023-04-19T12:54:52.541Z,21.85
2023-04-19T12:57:19.749Z,21.89
2023-04-19T12:59:47.383Z,21.95
2023-04-19T13:02:14.706Z,22.01
2023-04-19T13:04:42.360Z,22.05
2023-04-19T13:07:10.149Z,22.10
2023-04-19T13:09:37.394Z,22.15
2023-04-19T13:12:05.765Z,22.20
2023-04-19T13:14:32.956Z,22.26
2023-04-19T13:17:00.102Z,22.30
2023-04-19T13:19:27.729Z,22.34
2023-04-19T13:21:54.782Z,22.39
2023-04-19T13:24:21.886Z,22.42
2023-04-19T13:26:49.028Z,22.45
2023-04-19T13:29:16.098Z,22.48
2023-04-19T13:31:44.924Z,22.49
2023-04-19T13:34:12.004Z,22.49
2023-04-19T13:36:40.545Z,22.52
2023-04-19T13:39:08.626Z,22.53
2023-04-19T13:41:36.292Z,22.57
2023-04-19T13:44:04.415Z,22.59
2023-04-19T13:46:31.727Z,22.62
2023-04-19T13:48:58.796Z,22.65
2023-04-19T13:51:38.805Z,22.67
2023-04-19T13:54:14.328Z,22.69
2023-04-19T13:56:42.853Z,22.70
2023-04-19T13:59:10.199Z,22.72
2023-04-19T14:01:37.750Z,22.73
2023-04-19T14:04:05.792Z,22.75
2023-04-19T14:06:33.206Z,22.76
2023-04-19T14:09:00.378Z,22.77
2023-04-19T14:11:27.711Z,22.77
2023-04-19T14:13:55.084Z,22.79
2023-04-19T14:16:25.202Z,22.79
2023-04-19T14:18:52.968Z,22.79
2023-04-19T14:21:20.490Z,22.77
2023-04-19T14:23:48.137Z,22.75
2023-04-19T14:26:15.745Z,22.75
2023-04-19T14:28:43.813Z,22.75
2023-04-19T14:31:11.188Z,22.78
2023-04-19T14:33:38.595Z,22.74
2023-04-19T14:36:06.136Z,22.75
2023-04-19T14:38:34.477Z,22.75
2023-04-19T14:41:01.840Z,22.74
2023-04-19T14:43:29.579Z,22.73
2023-04-19T14:45:57.091Z,22.74
2023-04-19T14:48:25.091Z,22.73
2023-04-19T14:50:52.590Z,22.76
2023-04-19T14:53:19.889Z,22.76
2023-04-19T14:55:47.219Z,22.77
2023-04-19T14:58:14.520Z,22.77
2023-04-19T15:00:41.801Z,22.75
2023-04-19T15:03:09.285Z,22.73
2023-04-19T15:05:37.362Z,22.73
2023-04-19T15:08:05.125Z,22.70
2023-04-19T15:10:32.564Z,22.68
2023-04-19T15:12:59.957Z,22.68
2023-04-19T15:15:29.034Z,22.66
2023-04-19T15:17:57.460Z,22.67
2023-04-19T15:20:24.873Z,22.71
2023-04-19T15:22:52.662Z,22.71
2023-04-19T15:25:19.886Z,22.72
2023-04-19T15:27:47.380Z,22.70
2023-04-19T15:30:14.914Z,22.72
2023-04-19T15:32:44.531Z,22.70
2023-04-19T15:35:12.337Z,22.70
2023-04-19T15:37:41.231Z,22.69
2023-04-19T15:40:10.376Z,22.67
2023-04-19T15:42:37.750Z,22.68
2023-04-19T15:45:05.775Z,22.65
2023-04-19T15:47:35.378Z,22.65
2023-04-19T15:50:05.645Z,22.62
2023-04-19T15:52:33.027Z,22.62
2023-04-19T15:55:00.301Z,22.60
2023-04-19T15:57:27.539Z,22.60
2023-04-19T15:59:55.313Z,22.57
2023-04-19T16:02:22.882Z,22.58
2023-04-19T16:04:50.523Z,22.54
2023-04-19T16:07:18.193Z,22.49
2023-04-19T16:09:45.384Z,22.48
2023-04-19T16:12:12.792Z,22.46
2023-04-19T16:14:40.153Z,22.43
2023-04-19T16:17:07.547Z,22.39
2023-04-19T16:19:35.017Z,22.38
2023-04-19T16:22:06.016Z,22.36
2023-04-19T16:24:33.503Z,22.35
2023-04-19T16:27:01.980Z,22.35
2023-04-19T16:29:29.484Z,22.32
2023-04-19T16:31:57.157Z,22.32
2023-04-19T16:34:26.103Z,22.29
2023-04-19T16:36:54.005Z,22.28
2023-04-19T16:39:21.487Z,22.28
2023-04-19T16:41:48.965Z,22.28
2023-04-19T16:44:17.326Z,22.27
2023-04-19T16:46:44.645Z,22.25
2023-04-19T16:49:12.707Z,22.24
2023-04-19T16:51:40.709Z,22.20
2023-04-19T16:54:08.320Z,22.18
2023-04-19T16:56:36.091Z,22.16
2023-04-19T16:59:04.121Z,22.17
2023-04-19T17:01:31.922Z,22.12
2023-04-19T17:04:00.208Z,22.12
2023-04-19T17:06:29.078Z,22.11
2023-04-19T17:08:56.876Z,22.08
2023-04-19T17:11:24.656Z,22.06
2023-04-19T17:13:52.401Z,22.04
2023-04-19T17:16:20.931Z,22.04
2023-04-19T17:18:51.965Z,22.02
2023-04-19T17:21:19.387Z,21.98
2023-04-19T17:23:47.266Z,22.00
2023-04-19T17:26:16.457Z,21.97
2023-04-19T17:28:43.877Z,21.94
2023-04-19T17:31:11.101Z,21.90
2023-04-19T17:33:39.226Z,21.88
2023-04-19T17:36:07.496Z,21.84
2023-04-19T17:38:34.780Z,21.85
2023-04-19T17:41:04.887Z,21.84
2023-04-19T17:43:32.048Z,21.80
2023-04-19T17:46:00.194Z,21.79
2023-04-19T17:48:27.610Z,21.77
2023-04-19T17:50:55.201Z,21.73
2023-04-19T17:53:23.051Z,21.73
2023-04-19T17:55:50.404Z,21.70
2023-04-19T17:58:17.602Z,21.67
2023-04-19T18:00:44.990Z,21.65
2023-04-19T18:03:13.195Z,21.62
2023-04-19T18:05:41.250Z,21.60
2023-04-19T18:08:09.252Z,21.59
2023-04-19T18:10:36.972Z,21.58
2023-04-19T18:13:04.241Z,21.55
2023-04-19T18:15:32.209Z,21.52
2023-04-19T18:17:59.317Z,21.48
2023-04-19T18:20:26.579Z,21.48
2023-04-19T18:22:53.705Z,21.43
2023-04-19T18:25:21.010Z,21.45
2023-04-19T18:27:48.712Z,21.44
2023-04-19T18:30:15.796Z,21.42
2023-04-19T18:32:43.083Z,21.40
2023-04-19T18:35:11.117Z,21.37
2023-04-19T18:37:38.714Z,21.36
2023-04-19T18:40:08.056Z,21.35
2023-04-19T18:42:35.196Z,21.36
2023-04-19T18:45:03.965Z,21.33
2023-04-19T18:47:32.267Z,21.33
2023-04-19T18:50:05.335Z,21.30
2023-04-19T18:52:34.338Z,21.27
2023-04-19T18:55:02.408Z,21.27
2023-04-19T18:57:34.265Z,21.24
2023-04-19T19:00:02.215Z,21.24
2023-04-19T19:02:29.372Z,21.22
2023-04-19T19:05:01.016Z,21.21
2023-04-19T19:10:01.677Z,21.19
2023-04-19T19:12:29.651Z,21.21
2023-04-19T19:14:56.849Z,21.19
2023-04-19T19:17:28.272Z,21.17
2023-04-19T19:19:55.901Z,21.16
2023-04-19T19:22:28.170Z,21.16
2023-04-19T19:24:56.606Z,21.15
2023-04-19T19:27:23.817Z,21.15
2023-04-19T19:29:51.110Z,21.12
2023-04-19T19:32:20.270Z,21.13
2023-04-19T19:37:18.962Z,21.09
2023-04-19T19:39:46.699Z,21.10
2023-04-19T19:42:17.492Z,21.14
2023-04-19T19:44:44.880Z,21.16
2023-04-19T19:47:13.592Z,21.19
2023-04-19T19:50:00.471Z,21.20
2023-04-19T19:52:29.550Z,21.28
2023-04-19T19:54:56.801Z,21.34
2023-04-19T19:59:56.890Z,21.47
2023-04-19T20:02:25.297Z,21.52
2023-04-19T20:04:52.790Z,21.59
2023-04-19T20:09:51.833Z,21.71
2023-04-19T20:12:19.396Z,21.76
2023-04-19T20:14:46.981Z,21.81
2023-04-19T20:17:14.249Z,21.84
2023-04-19T20:19:43.425Z,21.93
2023-04-19T20:22:10.857Z,21.97
2023-04-19T20:24:38.773Z,22.04
2023-04-19T20:27:06.140Z,22.09
2023-04-19T20:29:33.610Z,22.15
2023-04-19T20:32:01.268Z,22.21
2023-04-19T20:34:29.325Z,22.25
2023-04-19T20:36:58.473Z,22.32
2023-04-19T20:39:27.197Z,22.38
2023-04-19T20:41:54.612Z,22.40
2023-04-19T20:44:23.476Z,22.46
2023-04-19T20:46:52.627Z,22.50
2023-04-19T20:49:19.963Z,22.52
2023-04-19T20:51:49.433Z,22.56
2023-04-19T20:54:16.669Z,22.60
2023-04-19T20:56:44.331Z,22.62
2023-04-19T20:59:11.808Z,22.66
2023-04-19T21:01:39.500Z,22.69
2023-04-19T21:04:09.041Z,22.70
2023-04-19T21:06:36.713Z,22.69
2023-04-19T21:09:05.059Z,22.73
2023-04-19T21:11:32.447Z,22.74
2023-04-19T21:14:00.262Z,22.73
2023-04-19T21:16:27.657Z,22.73
2023-04-19T21:18:54.844Z,22.73
2023-04-19T21:21:22.509Z,22.72
2023-04-19T21:23:49.625Z,22.74
2023-04-19T21:26:17.053Z,22.72
2023-04-19T21:28:44.245Z,22.71
2023-04-19T21:31:11.942Z,22.72
2023-04-19T21:33:39.265Z,22.70
2023-04-19T21:36:06.901Z,22.74
2023-04-19T21:38:34.968Z,22.74
2023-04-19T21:41:02.086Z,22.72
2023-04-19T21:43:30.114Z,22.78
2023-04-19T21:45:57.242Z,22.79
2023-04-19T21:48:24.652Z,22.78
2023-04-19T21:50:51.964Z,22.81
2023-04-19T21:53:19.182Z,22.80
2023-04-19T21:55:49.391Z,22.80
2023-04-19T21:58:16.626Z,22.79
2023-04-19T22:00:44.270Z,22.79
2023-04-19T22:03:12.387Z,22.77
2023-04-19T22:05:41.446Z,22.77
2023-04-19T22:08:08.766Z,22.77
2023-04-19T22:10:35.983Z,22.81
2023-04-19T22:13:05.029Z,22.83
2023-04-19T22:15:32.799Z,22.86
2023-04-19T22:18:03.427Z,22.91
2023-04-19T22:20:32.659Z,22.93
2023-04-19T22:23:00.003Z,22.95
2023-04-19T22:25:27.245Z,22.98
2023-04-19T22:27:55.051Z,23.00
2023-04-19T22:30:22.209Z,23.02
2023-04-19T22:32:49.688Z,23.06
2023-04-19T22:35:16.840Z,23.08
2023-04-19T22:37:44.003Z,23.10
2023-04-19T22:40:12.018Z,23.12
2023-04-19T22:42:39.078Z,23.14
2023-04-19T22:45:06.731Z,23.16
2023-04-19T22:47:33.966Z,23.16
2023-04-19T22:50:01.292Z,23.18
2023-04-19T22:52:28.683Z,23.21
2023-04-19T22:54:55.785Z,23.21
2023-04-19T22:57:23.008Z,23.22
2023-04-19T22:59:50.246Z,23.22
2023-04-19T23:02:17.466Z,23.23
2023-04-19T23:04:45.040Z,23.24
2023-04-19T23:07:13.146Z,23.24
2023-04-19T23:09:40.305Z,23.23
2023-04-19T23:12:08.923Z,23.24
2023-04-19T23:14:36.153Z,23.24
2023-04-19T23:17:03.364Z,23.24
2023-04-19T23:19:30.998Z,23.22
2023-04-19T23:21:58.098Z,23.23
2023-04-19T23:24:25.816Z,23.21
2023-04-19T23:26:53.014Z,23.21
2023-04-19T23:29:20.241Z,23.21
2023-04-19T23:31:47.815Z,23.19
2023-04-19T23:34:15.101Z,23.19
2023-04-19T23:36:42.355Z,23.18
2023-04-19T23:39:09.607Z,23.16
2023-04-19T23:41:36.814Z,23.17
2023-04-19T23:44:03.898Z,23.14
2023-04-19T23:46:31.360Z,23.13
2023-04-19T23:48:58.584Z,23.13
2023-04-19T23:51:26.021Z,23.13
2023-04-19T23:53:53.292Z,23.10
2023-04-19T23:56:21.311Z,23.10
2023-04-19T23:58:48.501Z,23.09
